createdAt,value
2023-03-26T00:02:37.579Z,24.09
2023-03-26T00:06:37.598Z,24.11
2023-03-26T00:10:37.603Z,24.11
2023-03-26T00:14:37.575Z,24.13
2023-03-26T00:18:37.618Z,24.10
2023-03-26T00:22:37.606Z,24.07
2023-03-26T00:26:37.645Z,24.03
2023-03-26T00:30:37.689Z,24.03
2023-03-26T00:34:37.686Z,24.19
2023-03-26T00:38:37.726Z,24.33
2023-03-26T00:42:37.786Z,24.50
2023-03-26T00:46:37.950Z,24.66
2023-03-26T00:50:37.886Z,24.79
2023-03-26T00:54:37.988Z,24.87
2023-03-26T00:58:38.032Z,24.97
2023-03-26T01:02:38.196Z,25.02
2023-03-26T01:06:38.183Z,25.07
2023-03-26T01:10:38.231Z,25.11
2023-03-26T01:14:38.302Z,25.11
2023-03-26T01:18:38.365Z,25.03
2023-03-26T01:22:38.444Z,24.84
2023-03-26T01:26:38.546Z,24.74
2023-03-26T01:30:38.656Z,24.62
2023-03-26T01:34:38.773Z,24.52
2023-03-26T01:38:38.889Z,24.47
2023-03-26T01:42:39.001Z,24.42
2023-03-26T01:46:39.166Z,24.35
2023-03-26T01:50:39.266Z,24.31
2023-03-26T01:54:39.399Z,24.22
2023-03-26T01:58:39.562Z,24.23
2023-03-26T02:02:39.736Z,24.23
2023-03-26T02:06:39.806Z,24.31
2023-03-26T02:10:39.948Z,24.31
2023-03-26T02:14:40.127Z,24.42
2023-03-26T02:18:40.320Z,24.49
2023-03-26T02:22:40.465Z,24.74
2023-03-26T02:26:40.636Z,24.97
2023-03-26T02:30:40.837Z,25.19
2023-03-26T02:34:40.977Z,25.37
2023-03-26T02:38:41.176Z,25.50
2023-03-26T02:42:41.419Z,25.66
2023-03-26T02:46:41.623Z,25.77
2023-03-26T02:50:41.763Z,25.89
2023-03-26T02:54:41.957Z,26.02
2023-03-26T02:58:42.149Z,26.11
2023-03-26T03:02:42.437Z,26.23
2023-03-26T03:06:42.575Z,26.33
2023-03-26T03:10:42.754Z,26.41
2023-03-26T03:14:42.985Z,26.49
2023-03-26T03:18:43.200Z,26.55
2023-03-26T03:22:43.195Z,26.63
2023-03-26T03:26:43.132Z,26.67
2023-03-26T03:30:43.110Z,26.77
2023-03-26T03:34:43.076Z,26.83
2023-03-26T03:38:43.028Z,26.86
2023-03-26T03:42:43.020Z,26.91
2023-03-26T03:46:43.012Z,26.92
2023-03-26T03:50:42.935Z,26.98
2023-03-26T03:54:42.893Z,27.02
2023-03-26T03:58:43.027Z,27.04
2023-03-26T04:02:43.275Z,27.10
2023-03-26T04:06:42.935Z,27.15
2023-03-26T04:10:42.877Z,27.23
2023-03-26T04:14:42.952Z,27.28
2023-03-26T04:18:42.941Z,27.36
2023-03-26T04:22:42.766Z,27.39
2023-03-26T04:26:42.736Z,27.42
2023-03-26T04:30:42.697Z,27.44
2023-03-26T04:34:42.686Z,27.45
2023-03-26T04:38:42.614Z,27.49
2023-03-26T04:42:42.588Z,27.52
2023-03-26T04:46:42.627Z,27.57
2023-03-26T04:50:42.690Z,27.59
2023-03-26T04:54:42.691Z,27.60
2023-03-26T04:58:42.721Z,27.34
2023-03-26T05:02:42.681Z,27.19
2023-03-26T05:06:42.672Z,27.13
2023-03-26T05:10:42.648Z,27.10
2023-03-26T05:14:42.622Z,27.23
2023-03-26T05:18:42.932Z,27.35
2023-03-26T05:22:42.619Z,27.47
2023-03-26T05:26:42.551Z,27.55
2023-03-26T05:30:42.533Z,27.65
2023-03-26T05:34:42.581Z,27.75
2023-03-26T05:38:42.604Z,27.82
2023-03-26T05:42:42.636Z,27.83
2023-03-26T05:46:42.583Z,27.86
2023-03-26T05:50:42.595Z,27.93
2023-03-26T05:54:42.575Z,27.98
2023-03-26T05:58:42.599Z,28.00
2023-03-26T06:02:42.866Z,28.05
2023-03-26T06:06:42.586Z,28.03
2023-03-26T06:10:42.589Z,28.07
2023-03-26T06:14:42.624Z,28.08
2023-03-26T06:18:42.648Z,28.08
2023-03-26T06:22:42.604Z,28.05
2023-03-26T06:26:42.579Z,27.97
2023-03-26T06:30:42.607Z,27.96
2023-03-26T06:34:42.605Z,27.98
2023-03-26T06:38:42.586Z,28.01
2023-03-26T06:43:09.259Z,28.03
2023-03-26T06:46:43.587Z,28.02
2023-03-26T06:50:42.520Z,28.02
2023-03-26T06:54:42.511Z,27.93
2023-03-26T06:58:42.457Z,27.95
2023-03-26T07:02:42.471Z,27.85
2023-03-26T07:06:42.390Z,27.90
2023-03-26T07:10:42.355Z,27.88
2023-03-26T07:14:42.350Z,27.83
2023-03-26T07:18:42.385Z,27.82
2023-03-26T07:22:42.586Z,27.84
2023-03-26T07:26:42.464Z,27.82
2023-03-26T07:30:42.434Z,27.76
2023-03-26T07:34:42.430Z,27.70
2023-03-26T07:38:42.404Z,27.60
2023-03-26T07:42:42.404Z,27.55
2023-03-26T07:46:42.410Z,27.44
2023-03-26T07:50:42.417Z,27.38
2023-03-26T07:54:42.361Z,27.33
2023-03-26T07:58:42.365Z,27.21
2023-03-26T08:02:42.368Z,27.16
2023-03-26T08:06:42.316Z,27.11
2023-03-26T08:10:42.404Z,27.11
2023-03-26T08:14:42.493Z,27.03
2023-03-26T08:18:42.534Z,26.97
2023-03-26T08:22:42.572Z,26.95
2023-03-26T08:26:42.641Z,26.90
2023-03-26T08:30:42.687Z,26.81
2023-03-26T08:34:42.656Z,26.68
2023-03-26T08:38:42.943Z,26.61
2023-03-26T08:42:42.685Z,26.59
2023-03-26T08:46:42.708Z,26.59
2023-03-26T08:50:42.767Z,26.51
2023-03-26T08:54:42.860Z,26.42
2023-03-26T08:58:42.980Z,26.38
2023-03-26T09:02:43.184Z,26.39
2023-03-26T09:06:43.283Z,26.40
2023-03-26T09:10:43.380Z,26.44
2023-03-26T09:14:43.514Z,26.41
2023-03-26T09:18:43.644Z,26.53
2023-03-26T09:22:43.762Z,26.53
2023-03-26T09:26:43.919Z,26.58
2023-03-26T09:30:44.071Z,26.64
2023-03-26T09:34:44.088Z,26.66
2023-03-26T09:38:44.005Z,26.68
2023-03-26T09:42:43.988Z,26.66
2023-03-26T09:46:45.582Z,26.64
2023-03-26T09:50:43.903Z,26.64
2023-03-26T09:54:43.874Z,26.65
2023-03-26T09:58:43.846Z,26.69
2023-03-26T10:02:45.452Z,26.66
2023-03-26T10:06:43.729Z,26.65
2023-03-26T10:10:43.675Z,26.63
2023-03-26T10:14:43.637Z,26.56
2023-03-26T10:18:43.620Z,26.61
2023-03-26T10:22:43.591Z,26.53
2023-03-26T10:27:09.384Z,26.48
2023-03-26T10:30:44.552Z,26.50
2023-03-26T10:34:43.486Z,26.54
2023-03-26T10:38:43.640Z,26.53
2023-03-26T10:42:43.594Z,26.58
2023-03-26T10:46:43.514Z,26.62
2023-03-26T10:50:43.503Z,26.59
2023-03-26T10:54:43.469Z,26.64
2023-03-26T10:58:48.359Z,26.68
2023-03-26T11:02:44.604Z,26.68
2023-03-26T11:06:43.385Z,26.68
2023-03-26T11:10:43.484Z,26.66
2023-03-26T11:14:43.703Z,26.66
2023-03-26T11:18:43.673Z,26.62
2023-03-26T11:22:43.597Z,26.66
2023-03-26T11:26:43.587Z,26.66
2023-03-26T11:30:43.549Z,26.65
2023-03-26T11:34:43.516Z,26.63
2023-03-26T11:38:43.500Z,26.58
2023-03-26T11:42:43.449Z,26.57
2023-03-26T11:46:43.445Z,26.54
2023-03-26T11:50:43.412Z,26.52
2023-03-26T11:54:43.339Z,26.52
2023-03-26T11:58:43.350Z,26.54
2023-03-26T12:02:43.604Z,26.54
2023-03-26T12:06:43.724Z,26.56
2023-03-26T12:10:43.947Z,26.52
2023-03-26T12:14:44.126Z,26.50
2023-03-26T12:18:44.361Z,26.54
2023-03-26T12:22:45.703Z,26.55
2023-03-26T12:26:44.559Z,26.62
2023-03-26T12:30:44.491Z,26.63
2023-03-26T12:34:44.435Z,26.68
2023-03-26T12:38:44.431Z,26.70
2023-03-26T12:44:50.230Z,26.67
2023-03-26T12:47:57.688Z,26.68
2023-03-26T12:50:45.331Z,26.70
2023-03-26T12:54:44.267Z,26.70
2023-03-26T12:58:44.214Z,26.72
2023-03-26T13:02:44.217Z,26.73
2023-03-26T13:07:00.062Z,26.75
2023-03-26T13:10:45.184Z,26.79
2023-03-26T13:14:44.056Z,26.83
2023-03-26T13:18:44.101Z,26.99
2023-03-26T13:22:44.205Z,27.24
2023-03-26T13:26:44.426Z,27.45
2023-03-26T13:30:44.618Z,27.78
2023-03-26T13:34:44.743Z,28.33
2023-03-26T13:38:44.882Z,28.74
2023-03-26T13:42:45.845Z,29.08
2023-03-26T13:46:44.835Z,29.43
2023-03-26T13:50:44.790Z,29.71
2023-03-26T13:54:44.988Z,29.90
2023-03-26T13:58:45.151Z,30.11
2023-03-26T14:02:45.366Z,30.24
2023-03-26T14:06:45.511Z,30.75
2023-03-26T14:10:45.730Z,31.11
2023-03-26T14:14:46.883Z,31.12
2023-03-26T14:18:45.843Z,31.24
2023-03-26T14:22:45.847Z,31.37
2023-03-26T14:26:45.821Z,31.43
2023-03-26T14:30:45.762Z,31.66
2023-03-26T14:34:45.737Z,32.14
2023-03-26T14:38:45.703Z,32.59
2023-03-26T14:42:45.680Z,32.87
2023-03-26T14:46:45.658Z,33.05
2023-03-26T14:50:45.588Z,33.25
2023-03-26T14:54:45.545Z,33.36
2023-03-26T14:58:45.571Z,33.53
2023-03-26T15:02:45.517Z,33.70
2023-03-26T15:06:45.635Z,33.82
2023-03-26T15:10:45.442Z,34.01
2023-03-26T15:14:45.398Z,34.03
2023-03-26T15:18:45.381Z,34.17
2023-03-26T15:22:45.338Z,34.23
2023-03-26T15:26:45.295Z,34.31
2023-03-26T15:30:45.275Z,34.34
2023-03-26T15:34:45.253Z,34.33
2023-03-26T15:38:45.291Z,34.33
2023-03-26T15:42:45.249Z,34.37
2023-03-26T15:46:45.218Z,34.38
2023-03-26T15:50:45.175Z,34.37
2023-03-26T15:54:45.154Z,34.43
2023-03-26T15:58:45.115Z,34.60
2023-03-26T16:02:45.100Z,34.72
2023-03-26T16:06:45.031Z,34.85
2023-03-26T16:10:44.987Z,34.98
2023-03-26T16:14:44.955Z,35.15
2023-03-26T16:18:44.956Z,35.36
2023-03-26T16:22:44.940Z,35.56
2023-03-26T16:26:44.905Z,35.67
2023-03-26T16:30:44.909Z,35.74
2023-03-26T16:34:44.817Z,35.77
2023-03-26T16:38:44.810Z,35.73
2023-03-26T16:42:44.778Z,35.79
2023-03-26T16:46:44.782Z,35.82
2023-03-26T16:50:44.671Z,35.89
2023-03-26T16:54:45.971Z,35.95
2023-03-26T16:58:44.654Z,35.99
2023-03-26T17:02:44.791Z,36.00
2023-03-26T17:06:44.605Z,36.05
2023-03-26T17:10:44.545Z,36.08
2023-03-26T17:14:44.524Z,36.11
2023-03-26T17:18:44.472Z,36.08
2023-03-26T17:22:44.414Z,36.11
2023-03-26T17:26:44.380Z,36.12
2023-03-26T17:30:44.340Z,36.14
2023-03-26T17:34:44.327Z,36.18
2023-03-26T17:38:45.329Z,36.29
2023-03-26T17:42:44.245Z,36.35
2023-03-26T17:46:45.059Z,36.42
2023-03-26T17:50:44.210Z,36.48
2023-03-26T17:54:44.287Z,36.55
2023-03-26T17:58:44.177Z,36.62
2023-03-26T18:02:44.209Z,36.63
2023-03-26T18:06:44.130Z,36.60
2023-03-26T18:10:44.134Z,36.61
2023-03-26T18:14:44.122Z,36.57
2023-03-26T18:18:44.120Z,36.60
2023-03-26T18:22:44.133Z,36.65
2023-03-26T18:26:44.101Z,36.73
2023-03-26T18:30:44.064Z,36.91
2023-03-26T18:34:44.076Z,37.00
2023-03-26T18:38:44.234Z,36.98
2023-03-26T18:42:44.004Z,37.05
2023-03-26T18:46:43.989Z,37.09
2023-03-26T18:50:43.942Z,37.25
2023-03-26T18:54:43.925Z,37.24
2023-03-26T18:58:43.910Z,37.16
2023-03-26T19:02:43.973Z,37.16
2023-03-26T19:06:43.925Z,37.17
2023-03-26T19:10:43.954Z,37.13
2023-03-26T19:14:43.962Z,37.15
2023-03-26T19:18:44.253Z,37.16
2023-03-26T19:22:44.008Z,37.23
2023-03-26T19:26:43.990Z,37.31
2023-03-26T19:30:44.057Z,37.36
2023-03-26T19:34:44.006Z,37.36
2023-03-26T19:38:44.026Z,37.28
2023-03-26T19:42:45.033Z,37.17
2023-03-26T19:46:53.969Z,37.08
2023-03-26T19:50:44.999Z,36.97
2023-03-26T19:54:59.024Z,36.97
2023-03-26T19:58:44.960Z,36.96
2023-03-26T20:02:43.965Z,37.04
2023-03-26T20:06:44.400Z,37.02
2023-03-26T20:10:43.821Z,37.09
2023-03-26T20:14:43.779Z,37.11
2023-03-26T20:18:43.732Z,37.21
2023-03-26T20:22:43.693Z,37.19
2023-03-26T20:26:43.744Z,37.26
2023-03-26T20:30:43.752Z,37.28
2023-03-26T20:34:43.810Z,37.31
2023-03-26T20:38:43.856Z,37.32
2023-03-26T20:42:43.924Z,37.34
2023-03-26T20:46:44.052Z,37.30
2023-03-26T20:50:50.752Z,37.18
2023-03-26T20:54:44.919Z,37.13
2023-03-26T20:58:43.909Z,37.06
2023-03-26T21:02:43.972Z,37.04
2023-03-26T21:06:43.819Z,37.01
2023-03-26T21:10:43.806Z,37.14
2023-03-26T21:14:43.759Z,37.22
2023-03-26T21:18:43.715Z,37.21
2023-03-26T21:22:43.816Z,37.19
2023-03-26T21:26:43.842Z,37.22
2023-03-26T21:30:43.857Z,37.16
2023-03-26T21:34:55.553Z,37.15
2023-03-26T21:38:44.865Z,37.18
2023-03-26T21:42:43.802Z,37.16
2023-03-26T21:46:43.796Z,37.16
2023-03-26T21:50:43.769Z,37.12
2023-03-26T21:54:43.732Z,37.13
2023-03-26T21:58:43.678Z,37.12
2023-03-26T22:02:43.691Z,37.14
2023-03-26T22:06:43.648Z,37.14
2023-03-26T22:10:43.714Z,37.14
2023-03-26T22:14:43.761Z,37.12
2023-03-26T22:18:43.787Z,37.17
2023-03-26T22:22:43.832Z,37.19
2023-03-26T22:26:43.841Z,37.17
2023-03-26T22:30:43.902Z,37.14
2023-03-26T22:34:43.914Z,37.12
2023-03-26T22:38:43.969Z,37.09
2023-03-26T22:42:44.059Z,37.06
2023-03-26T22:46:44.188Z,36.96
2023-03-26T22:50:44.139Z,36.90
2023-03-26T22:54:44.170Z,36.83
2023-03-26T22:58:44.243Z,36.68
2023-03-26T23:02:44.335Z,36.60
2023-03-26T23:06:44.351Z,36.47
2023-03-26T23:10:44.444Z,36.43
2023-03-26T23:14:44.487Z,36.42
2023-03-26T23:18:44.585Z,36.41
2023-03-26T23:22:44.636Z,36.34
2023-03-26T23:26:50.565Z,36.27
2023-03-26T23:30:45.716Z,36.32
2023-03-26T23:34:51.931Z,36.30
2023-03-26T23:38:45.645Z,36.34
2023-03-26T23:42:44.583Z,36.33
2023-03-26T23:46:44.581Z,36.32
2023-03-26T23:50:44.527Z,36.37
2023-03-26T23:54:44.572Z,36.36
2023-03-26T23:58:44.653Z,36.36
